sensor_id;sensor_type;location;lat;lon;timestamp;temperature;humidity
71237;DHT22;58984;51.960;5.582;2022-08-19T00:01:41;27.70;52.50
71237;DHT22;58984;51.960;5.582;2022-08-19T00:04:10;27.70;52.60
71237;DHT22;58984;51.960;5.582;2022-08-19T00:06:38;27.60;52.60
71237;DHT22;58984;51.960;5.582;2022-08-19T00:09:06;27.60;52.60
71237;DHT22;58984;51.960;5.582;2022-08-19T00:11:33;27.60;52.60
71237;DHT22;58984;51.960;5.582;2022-08-19T00:14:03;27.60;52.60
71237;DHT22;58984;51.960;5.582;2022-08-19T00:16:29;27.60;52.60
71237;DHT22;58984;51.960;5.582;2022-08-19T00:18:55;27.60;52.60
71237;DHT22;58984;51.960;5.582;2022-08-19T00:21:22;27.60;52.60
71237;DHT22;58984;51.960;5.582;2022-08-19T00:23:47;27.60;52.60
71237;DHT22;58984;51.960;5.582;2022-08-19T00:26:13;27.50;52.50
71237;DHT22;58984;51.960;5.582;2022-08-19T00:28:39;27.50;52.60
71237;DHT22;58984;51.960;5.582;2022-08-19T00:31:06;27.60;52.70
71237;DHT22;58984;51.960;5.582;2022-08-19T00:33:33;27.50;52.60
71237;DHT22;58984;51.960;5.582;2022-08-19T00:35:59;27.50;52.60
71237;DHT22;58984;51.960;5.582;2022-08-19T00:38:25;27.50;52.60
71237;DHT22;58984;51.960;5.582;2022-08-19T00:40:51;27.50;52.60
71237;DHT22;58984;51.960;5.582;2022-08-19T00:43:20;27.50;52.70
71237;DHT22;58984;51.960;5.582;2022-08-19T00:45:47;27.40;52.60
71237;DHT22;58984;51.960;5.582;2022-08-19T00:48:14;27.50;52.70
71237;DHT22;58984;51.960;5.582;2022-08-19T00:50:41;27.40;52.70
71237;DHT22;58984;51.960;5.582;2022-08-19T00:53:10;27.40;52.70
71237;DHT22;58984;51.960;5.582;2022-08-19T00:55:37;27.40;53.30
71237;DHT22;58984;51.960;5.582;2022-08-19T00:58:08;27.40;52.80
71237;DHT22;58984;51.960;5.582;2022-08-19T01:00:35;27.30;52.70
71237;DHT22;58984;51.960;5.582;2022-08-19T01:03:08;27.50;52.70
71237;DHT22;58984;51.960;5.582;2022-08-19T01:05:34;27.40;52.30
71237;DHT22;58984;51.960;5.582;2022-08-19T01:08:02;27.60;53.20
71237;DHT22;58984;51.960;5.582;2022-08-19T01:10:31;27.50;52.30
71237;DHT22;58984;51.960;5.582;2022-08-19T01:12:58;27.40;52.60
71237;DHT22;58984;51.960;5.582;2022-08-19T01:15:29;27.30;52.70
71237;DHT22;58984;51.960;5.582;2022-08-19T01:17:55;27.30;52.80
71237;DHT22;58984;51.960;5.582;2022-08-19T01:20:23;27.30;52.80
71237;DHT22;58984;51.960;5.582;2022-08-19T01:22:55;27.30;52.80
71237;DHT22;58984;51.960;5.582;2022-08-19T01:25:57;27.20;52.80
71237;DHT22;58984;51.960;5.582;2022-08-19T01:28:21;27.20;52.80
71237;DHT22;58984;51.960;5.582;2022-08-19T01:30:47;27.30;52.90
71237;DHT22;58984;51.960;5.582;2022-08-19T01:33:14;27.30;52.80
71237;DHT22;58984;51.960;5.582;2022-08-19T01:35:41;27.20;52.80
71237;DHT22;58984;51.960;5.582;2022-08-19T01:38:18;27.20;52.80
71237;DHT22;58984;51.960;5.582;2022-08-19T01:40:44;27.20;52.80
71237;DHT22;58984;51.960;5.582;2022-08-19T01:43:10;27.20;52.70
71237;DHT22;58984;51.960;5.582;2022-08-19T01:45:36;27.30;52.50
71237;DHT22;58984;51.960;5.582;2022-08-19T01:48:03;27.20;52.80
71237;DHT22;58984;51.960;5.582;2022-08-19T01:50:31;27.10;52.80
71237;DHT22;58984;51.960;5.582;2022-08-19T01:52:57;27.10;52.80
71237;DHT22;58984;51.960;5.582;2022-08-19T01:55:25;27.10;52.70
71237;DHT22;58984;51.960;5.582;2022-08-19T01:57:55;27.10;52.70
71237;DHT22;58984;51.960;5.582;2022-08-19T02:00:26;27.00;52.80
71237;DHT22;58984;51.960;5.582;2022-08-19T02:02:52;27.10;52.80
71237;DHT22;58984;51.960;5.582;2022-08-19T02:05:18;27.10;52.80
71237;DHT22;58984;51.960;5.582;2022-08-19T02:07:46;27.10;52.80
71237;DHT22;58984;51.960;5.582;2022-08-19T02:10:15;27.00;52.70
71237;DHT22;58984;51.960;5.582;2022-08-19T02:12:41;27.10;52.90
71237;DHT22;58984;51.960;5.582;2022-08-19T02:15:07;27.10;52.80
71237;DHT22;58984;51.960;5.582;2022-08-19T02:17:35;27.00;52.80
71237;DHT22;58984;51.960;5.582;2022-08-19T02:20:01;27.00;52.90
71237;DHT22;58984;51.960;5.582;2022-08-19T02:22:27;27.00;52.90
71237;DHT22;58984;51.960;5.582;2022-08-19T02:24:54;27.00;52.80
71237;DHT22;58984;51.960;5.582;2022-08-19T02:27:21;27.00;52.90
71237;DHT22;58984;51.960;5.582;2022-08-19T02:29:49;27.00;52.90
71237;DHT22;58984;51.960;5.582;2022-08-19T02:32:15;26.90;52.90
71237;DHT22;58984;51.960;5.582;2022-08-19T02:34:41;26.90;52.90
71237;DHT22;58984;51.960;5.582;2022-08-19T02:37:07;27.00;52.90
71237;DHT22;58984;51.960;5.582;2022-08-19T02:39:56;26.90;52.90
71237;DHT22;58984;51.960;5.582;2022-08-19T02:42:21;27.00;52.90
71237;DHT22;58984;51.960;5.582;2022-08-19T02:44:47;26.90;52.90
71237;DHT22;58984;51.960;5.582;2022-08-19T02:47:13;26.90;52.90
71237;DHT22;58984;51.960;5.582;2022-08-19T02:49:40;26.90;52.80
71237;DHT22;58984;51.960;5.582;2022-08-19T02:52:06;26.90;53.00
71237;DHT22;58984;51.960;5.582;2022-08-19T02:54:32;26.90;53.00
71237;DHT22;58984;51.960;5.582;2022-08-19T02:56:57;26.90;52.90
71237;DHT22;58984;51.960;5.582;2022-08-19T02:59:24;26.90;52.90
71237;DHT22;58984;51.960;5.582;2022-08-19T03:01:51;26.80;52.90
71237;DHT22;58984;51.960;5.582;2022-08-19T03:04:16;26.80;52.90
71237;DHT22;58984;51.960;5.582;2022-08-19T03:06:44;26.80;52.90
71237;DHT22;58984;51.960;5.582;2022-08-19T03:09:10;26.80;53.10
71237;DHT22;58984;51.960;5.582;2022-08-19T03:11:37;26.80;53.10
71237;DHT22;58984;51.960;5.582;2022-08-19T03:14:04;26.80;53.10
71237;DHT22;58984;51.960;5.582;2022-08-19T03:16:35;26.80;53.10
71237;DHT22;58984;51.960;5.582;2022-08-19T03:19:01;26.70;53.10
71237;DHT22;58984;51.960;5.582;2022-08-19T03:21:29;26.70;53.10
71237;DHT22;58984;51.960;5.582;2022-08-19T03:23:57;26.70;53.10
71237;DHT22;58984;51.960;5.582;2022-08-19T03:26:23;26.80;53.20
71237;DHT22;58984;51.960;5.582;2022-08-19T03:28:49;26.80;53.30
71237;DHT22;58984;51.960;5.582;2022-08-19T03:31:18;26.80;53.10
71237;DHT22;58984;51.960;5.582;2022-08-19T03:33:44;26.70;53.20
71237;DHT22;58984;51.960;5.582;2022-08-19T03:36:12;26.70;53.20
71237;DHT22;58984;51.960;5.582;2022-08-19T03:38:47;26.70;53.20
71237;DHT22;58984;51.960;5.582;2022-08-19T03:41:25;26.70;53.30
71237;DHT22;58984;51.960;5.582;2022-08-19T03:43:52;26.60;53.40
71237;DHT22;58984;51.960;5.582;2022-08-19T03:46:24;26.70;53.30
71237;DHT22;58984;51.960;5.582;2022-08-19T03:48:52;26.60;53.30
71237;DHT22;58984;51.960;5.582;2022-08-19T03:51:23;26.70;53.30
71237;DHT22;58984;51.960;5.582;2022-08-19T03:53:51;26.60;53.30
71237;DHT22;58984;51.960;5.582;2022-08-19T03:56:17;26.60;53.30
71237;DHT22;58984;51.960;5.582;2022-08-19T03:58:44;26.60;53.30
71237;DHT22;58984;51.960;5.582;2022-08-19T04:01:14;26.60;53.50
71237;DHT22;58984;51.960;5.582;2022-08-19T04:03:40;26.60;53.50
71237;DHT22;58984;51.960;5.582;2022-08-19T04:06:11;26.60;53.40
71237;DHT22;58984;51.960;5.582;2022-08-19T04:08:41;26.50;53.80
71237;DHT22;58984;51.960;5.582;2022-08-19T04:11:13;26.60;53.40
71237;DHT22;58984;51.960;5.582;2022-08-19T04:13:40;26.50;53.30
71237;DHT22;58984;51.960;5.582;2022-08-19T04:16:07;26.60;53.40
71237;DHT22;58984;51.960;5.582;2022-08-19T04:18:36;26.50;53.30
71237;DHT22;58984;51.960;5.582;2022-08-19T04:21:03;26.50;53.40
71237;DHT22;58984;51.960;5.582;2022-08-19T04:23:29;26.50;53.50
71237;DHT22;58984;51.960;5.582;2022-08-19T04:25:55;26.50;53.40
71237;DHT22;58984;51.960;5.582;2022-08-19T04:28:22;26.50;53.50
71237;DHT22;58984;51.960;5.582;2022-08-19T04:30:51;26.50;53.50
71237;DHT22;58984;51.960;5.582;2022-08-19T04:33:19;26.50;53.50
71237;DHT22;58984;51.960;5.582;2022-08-19T04:35:48;26.40;53.50
71237;DHT22;58984;51.960;5.582;2022-08-19T04:38:14;26.40;53.40
71237;DHT22;58984;51.960;5.582;2022-08-19T04:40:48;26.40;53.40
71237;DHT22;58984;51.960;5.582;2022-08-19T04:43:33;26.40;53.40
71237;DHT22;58984;51.960;5.582;2022-08-19T04:46:08;26.60;53.30
71237;DHT22;58984;51.960;5.582;2022-08-19T04:48:35;26.50;53.10
71237;DHT22;58984;51.960;5.582;2022-08-19T04:51:01;26.40;53.30
71237;DHT22;58984;51.960;5.582;2022-08-19T04:53:34;26.40;53.50
71237;DHT22;58984;51.960;5.582;2022-08-19T04:56:08;26.40;53.40
71237;DHT22;58984;51.960;5.582;2022-08-19T04:58:35;26.30;53.40
71237;DHT22;58984;51.960;5.582;2022-08-19T05:01:01;26.40;53.40
71237;DHT22;58984;51.960;5.582;2022-08-19T05:03:27;26.30;53.40
71237;DHT22;58984;51.960;5.582;2022-08-19T05:05:53;26.30;53.40
71237;DHT22;58984;51.960;5.582;2022-08-19T05:08:20;26.30;53.40
71237;DHT22;58984;51.960;5.582;2022-08-19T05:10:48;26.30;53.50
71237;DHT22;58984;51.960;5.582;2022-08-19T05:13:17;26.30;53.60
71237;DHT22;58984;51.960;5.582;2022-08-19T05:15:43;26.30;53.70
71237;DHT22;58984;51.960;5.582;2022-08-19T05:18:10;26.30;53.70
71237;DHT22;58984;51.960;5.582;2022-08-19T05:20:54;26.30;53.70
71237;DHT22;58984;51.960;5.582;2022-08-19T05:23:39;26.30;53.70
71237;DHT22;58984;51.960;5.582;2022-08-19T05:26:04;26.30;53.80
71237;DHT22;58984;51.960;5.582;2022-08-19T05:28:30;26.30;53.80
71237;DHT22;58984;51.960;5.582;2022-08-19T05:30:56;26.30;53.90
71237;DHT22;58984;51.960;5.582;2022-08-19T05:33:22;26.30;53.90
71237;DHT22;58984;51.960;5.582;2022-08-19T05:35:48;26.30;53.90
71237;DHT22;58984;51.960;5.582;2022-08-19T05:38:18;26.20;53.90
71237;DHT22;58984;51.960;5.582;2022-08-19T05:40:45;26.20;54.00
71237;DHT22;58984;51.960;5.582;2022-08-19T05:43:13;26.30;54.00
71237;DHT22;58984;51.960;5.582;2022-08-19T05:45:42;26.20;54.00
71237;DHT22;58984;51.960;5.582;2022-08-19T05:48:11;26.20;54.00
71237;DHT22;58984;51.960;5.582;2022-08-19T05:50:40;26.20;54.00
71237;DHT22;58984;51.960;5.582;2022-08-19T05:53:06;26.20;54.00
71237;DHT22;58984;51.960;5.582;2022-08-19T05:55:31;26.30;54.10
71237;DHT22;58984;51.960;5.582;2022-08-19T05:57:57;26.20;54.00
71237;DHT22;58984;51.960;5.582;2022-08-19T06:00:23;26.20;54.10
71237;DHT22;58984;51.960;5.582;2022-08-19T06:02:49;26.20;54.20
71237;DHT22;58984;51.960;5.582;2022-08-19T06:05:16;26.20;54.20
71237;DHT22;58984;51.960;5.582;2022-08-19T06:07:41;26.20;54.10
71237;DHT22;58984;51.960;5.582;2022-08-19T06:10:09;26.30;54.20
71237;DHT22;58984;51.960;5.582;2022-08-19T06:12:35;26.20;54.10
71237;DHT22;58984;51.960;5.582;2022-08-19T06:15:11;26.20;54.20
71237;DHT22;58984;51.960;5.582;2022-08-19T06:17:37;26.20;54.30
71237;DHT22;58984;51.960;5.582;2022-08-19T06:20:08;26.20;54.30
71237;DHT22;58984;51.960;5.582;2022-08-19T06:22:39;26.10;54.30
71237;DHT22;58984;51.960;5.582;2022-08-19T06:25:06;26.20;54.30
71237;DHT22;58984;51.960;5.582;2022-08-19T06:27:31;26.20;54.40
71237;DHT22;58984;51.960;5.582;2022-08-19T06:29:58;26.20;54.40
71237;DHT22;58984;51.960;5.582;2022-08-19T06:32:24;26.20;54.40
71237;DHT22;58984;51.960;5.582;2022-08-19T06:34:49;26.20;54.30
71237;DHT22;58984;51.960;5.582;2022-08-19T06:37:16;26.20;54.40
71237;DHT22;58984;51.960;5.582;2022-08-19T06:39:43;26.30;54.40
71237;DHT22;58984;51.960;5.582;2022-08-19T06:42:09;26.20;54.40
71237;DHT22;58984;51.960;5.582;2022-08-19T06:44:39;26.20;54.40
71237;DHT22;58984;51.960;5.582;2022-08-19T06:47:08;26.20;54.40
71237;DHT22;58984;51.960;5.582;2022-08-19T06:49:34;26.20;54.40
71237;DHT22;58984;51.960;5.582;2022-08-19T06:52:01;26.30;54.50
71237;DHT22;58984;51.960;5.582;2022-08-19T06:54:28;26.30;54.60
71237;DHT22;58984;51.960;5.582;2022-08-19T06:56:55;26.30;54.60
71237;DHT22;58984;51.960;5.582;2022-08-19T06:59:23;26.20;54.50
71237;DHT22;58984;51.960;5.582;2022-08-19T07:01:55;26.30;54.50
71237;DHT22;58984;51.960;5.582;2022-08-19T07:04:26;26.30;54.50
71237;DHT22;58984;51.960;5.582;2022-08-19T07:07:04;26.20;54.50
71237;DHT22;58984;51.960;5.582;2022-08-19T07:09:32;26.20;54.50
71237;DHT22;58984;51.960;5.582;2022-08-19T07:11:58;26.30;54.50
71237;DHT22;58984;51.960;5.582;2022-08-19T07:14:26;26.30;54.60
71237;DHT22;58984;51.960;5.582;2022-08-19T07:16:54;26.30;54.60
71237;DHT22;58984;51.960;5.582;2022-08-19T07:19:21;26.30;54.60
71237;DHT22;58984;51.960;5.582;2022-08-19T07:21:48;26.30;54.60
71237;DHT22;58984;51.960;5.582;2022-08-19T07:24:15;26.30;54.60
71237;DHT22;58984;51.960;5.582;2022-08-19T07:26:43;26.30;54.60
71237;DHT22;58984;51.960;5.582;2022-08-19T07:29:10;26.30;54.60
71237;DHT22;58984;51.960;5.582;2022-08-19T07:31:37;26.30;54.60
71237;DHT22;58984;51.960;5.582;2022-08-19T07:34:08;26.30;54.50
71237;DHT22;58984;51.960;5.582;2022-08-19T07:36:36;26.30;54.60
71237;DHT22;58984;51.960;5.582;2022-08-19T07:39:09;26.40;54.60
71237;DHT22;58984;51.960;5.582;2022-08-19T07:41:37;26.30;54.60
71237;DHT22;58984;51.960;5.582;2022-08-19T07:44:05;26.30;54.60
71237;DHT22;58984;51.960;5.582;2022-08-19T07:46:34;26.30;54.60
71237;DHT22;58984;51.960;5.582;2022-08-19T07:49:00;26.40;54.70
71237;DHT22;58984;51.960;5.582;2022-08-19T07:51:27;26.40;54.60
71237;DHT22;58984;51.960;5.582;2022-08-19T07:53:53;26.40;54.70
71237;DHT22;58984;51.960;5.582;2022-08-19T07:56:20;26.40;54.70
71237;DHT22;58984;51.960;5.582;2022-08-19T07:58:48;26.40;54.70
71237;DHT22;58984;51.960;5.582;2022-08-19T08:01:17;26.40;54.80
71237;DHT22;58984;51.960;5.582;2022-08-19T08:03:43;26.50;54.80
71237;DHT22;58984;51.960;5.582;2022-08-19T08:06:27;26.50;54.80
71237;DHT22;58984;51.960;5.582;2022-08-19T08:09:12;26.50;54.80
71237;DHT22;58984;51.960;5.582;2022-08-19T08:11:57;26.50;54.70
71237;DHT22;58984;51.960;5.582;2022-08-19T08:14:29;26.50;54.80
71237;DHT22;58984;51.960;5.582;2022-08-19T08:16:56;26.50;54.70
71237;DHT22;58984;51.960;5.582;2022-08-19T08:19:24;26.50;54.70
71237;DHT22;58984;51.960;5.582;2022-08-19T08:21:51;26.60;54.60
71237;DHT22;58984;51.960;5.582;2022-08-19T08:24:17;26.50;54.50
71237;DHT22;58984;51.960;5.582;2022-08-19T08:26:43;26.60;54.40
71237;DHT22;58984;51.960;5.582;2022-08-19T08:29:14;26.60;54.30
71237;DHT22;58984;51.960;5.582;2022-08-19T08:31:42;26.60;54.20
71237;DHT22;58984;51.960;5.582;2022-08-19T08:34:09;26.70;54.10
71237;DHT22;58984;51.960;5.582;2022-08-19T08:36:40;26.70;54.00
71237;DHT22;58984;51.960;5.582;2022-08-19T08:39:08;26.70;54.00
71237;DHT22;58984;51.960;5.582;2022-08-19T08:41:54;26.80;53.80
71237;DHT22;58984;51.960;5.582;2022-08-19T08:44:32;26.70;53.90
71237;DHT22;58984;51.960;5.582;2022-08-19T08:47:09;26.70;53.70
71237;DHT22;58984;51.960;5.582;2022-08-19T08:49:45;26.80;53.70
71237;DHT22;58984;51.960;5.582;2022-08-19T08:52:31;26.80;53.70
71237;DHT22;58984;51.960;5.582;2022-08-19T08:55:08;26.80;53.80
71237;DHT22;58984;51.960;5.582;2022-08-19T09:00:19;26.90;53.70
71237;DHT22;58984;51.960;5.582;2022-08-19T09:02:46;27.00;53.80
71237;DHT22;58984;51.960;5.582;2022-08-19T09:05:12;27.10;53.90
71237;DHT22;58984;51.960;5.582;2022-08-19T09:13:36;27.00;53.80
71237;DHT22;58984;51.960;5.582;2022-08-19T09:16:09;27.00;53.80
71237;DHT22;58984;51.960;5.582;2022-08-19T09:18:41;27.20;53.70
71237;DHT22;58984;51.960;5.582;2022-08-19T09:21:07;27.10;53.90
71237;DHT22;58984;51.960;5.582;2022-08-19T09:23:35;27.30;54.00
71237;DHT22;58984;51.960;5.582;2022-08-19T09:26:00;27.30;54.70
71237;DHT22;58984;51.960;5.582;2022-08-19T09:28:26;27.30;54.00
71237;DHT22;58984;51.960;5.582;2022-08-19T09:30:52;27.40;54.10
71237;DHT22;58984;51.960;5.582;2022-08-19T09:33:18;27.40;54.10
71237;DHT22;58984;51.960;5.582;2022-08-19T09:35:45;27.40;54.00
71237;DHT22;58984;51.960;5.582;2022-08-19T09:38:11;27.50;54.00
71237;DHT22;58984;51.960;5.582;2022-08-19T09:40:37;27.50;54.00
71237;DHT22;58984;51.960;5.582;2022-08-19T09:43:02;27.50;53.90
71237;DHT22;58984;51.960;5.582;2022-08-19T09:45:29;27.60;53.90
71237;DHT22;58984;51.960;5.582;2022-08-19T09:47:54;27.70;54.00
71237;DHT22;58984;51.960;5.582;2022-08-19T09:50:22;27.70;54.00
71237;DHT22;58984;51.960;5.582;2022-08-19T09:52:49;27.70;53.90
71237;DHT22;58984;51.960;5.582;2022-08-19T09:55:15;27.80;53.90
71237;DHT22;58984;51.960;5.582;2022-08-19T09:57:41;27.80;53.80
71237;DHT22;58984;51.960;5.582;2022-08-19T10:00:08;27.90;53.80
71237;DHT22;58984;51.960;5.582;2022-08-19T10:02:34;27.90;53.80
71237;DHT22;58984;51.960;5.582;2022-08-19T10:05:00;28.00;53.80
71237;DHT22;58984;51.960;5.582;2022-08-19T10:07:44;28.00;53.80
71237;DHT22;58984;51.960;5.582;2022-08-19T10:10:10;28.10;53.70
71237;DHT22;58984;51.960;5.582;2022-08-19T10:12:36;28.10;53.60
71237;DHT22;58984;51.960;5.582;2022-08-19T10:15:03;28.10;53.50
71237;DHT22;58984;51.960;5.582;2022-08-19T10:17:29;28.10;53.30
71237;DHT22;58984;51.960;5.582;2022-08-19T10:19:55;28.20;53.30
71237;DHT22;58984;51.960;5.582;2022-08-19T10:22:21;28.20;53.40
71237;DHT22;58984;51.960;5.582;2022-08-19T10:24:49;28.30;53.40
71237;DHT22;58984;51.960;5.582;2022-08-19T10:27:14;28.30;53.40
71237;DHT22;58984;51.960;5.582;2022-08-19T10:29:41;28.30;53.40
71237;DHT22;58984;51.960;5.582;2022-08-19T10:32:08;28.40;53.40
71237;DHT22;58984;51.960;5.582;2022-08-19T10:34:35;28.40;53.40
71237;DHT22;58984;51.960;5.582;2022-08-19T10:37:02;28.50;53.60
71237;DHT22;58984;51.960;5.582;2022-08-19T10:39:34;28.50;53.50
71237;DHT22;58984;51.960;5.582;2022-08-19T10:42:05;28.50;53.40
71237;DHT22;58984;51.960;5.582;2022-08-19T10:44:32;28.50;53.40
71237;DHT22;58984;51.960;5.582;2022-08-19T10:47:00;28.60;53.40
71237;DHT22;58984;51.960;5.582;2022-08-19T10:49:26;28.70;53.40
71237;DHT22;58984;51.960;5.582;2022-08-19T10:51:52;28.70;53.30
71237;DHT22;58984;51.960;5.582;2022-08-19T10:54:36;28.70;53.30
71237;DHT22;58984;51.960;5.582;2022-08-19T10:57:20;28.70;53.10
71237;DHT22;58984;51.960;5.582;2022-08-19T10:59:49;28.70;53.10
71237;DHT22;58984;51.960;5.582;2022-08-19T11:02:15;28.70;53.10
71237;DHT22;58984;51.960;5.582;2022-08-19T11:04:41;28.80;53.20
71237;DHT22;58984;51.960;5.582;2022-08-19T11:07:07;28.80;53.20
71237;DHT22;58984;51.960;5.582;2022-08-19T11:09:38;28.80;53.30
71237;DHT22;58984;51.960;5.582;2022-08-19T11:12:04;28.80;53.30
71237;DHT22;58984;51.960;5.582;2022-08-19T11:14:31;28.90;53.30
71237;DHT22;58984;51.960;5.582;2022-08-19T11:16:58;28.90;53.30
71237;DHT22;58984;51.960;5.582;2022-08-19T11:19:24;28.90;54.00
71237;DHT22;58984;51.960;5.582;2022-08-19T11:21:51;29.00;53.30
71237;DHT22;58984;51.960;5.582;2022-08-19T11:24:20;29.00;53.30
71237;DHT22;58984;51.960;5.582;2022-08-19T11:26:48;29.00;53.40
71237;DHT22;58984;51.960;5.582;2022-08-19T11:29:20;29.00;53.30
71237;DHT22;58984;51.960;5.582;2022-08-19T11:31:48;29.10;53.30
71237;DHT22;58984;51.960;5.582;2022-08-19T11:34:21;29.10;53.30
71237;DHT22;58984;51.960;5.582;2022-08-19T11:36:48;29.20;53.40
71237;DHT22;58984;51.960;5.582;2022-08-19T11:39:16;29.20;53.30
71237;DHT22;58984;51.960;5.582;2022-08-19T11:41:42;29.30;53.40
71237;DHT22;58984;51.960;5.582;2022-08-19T11:44:08;29.30;53.30
71237;DHT22;58984;51.960;5.582;2022-08-19T11:46:35;29.30;53.30
71237;DHT22;58984;51.960;5.582;2022-08-19T11:49:01;29.40;53.30
71237;DHT22;58984;51.960;5.582;2022-08-19T11:51:29;29.40;53.20
71237;DHT22;58984;51.960;5.582;2022-08-19T11:53:56;29.40;53.10
71237;DHT22;58984;51.960;5.582;2022-08-19T11:56:24;29.40;53.30
71237;DHT22;58984;51.960;5.582;2022-08-19T11:58:51;29.50;53.20
71237;DHT22;58984;51.960;5.582;2022-08-19T12:01:19;29.50;53.20
71237;DHT22;58984;51.960;5.582;2022-08-19T12:03:47;29.50;53.20
71237;DHT22;58984;51.960;5.582;2022-08-19T12:06:21;29.60;53.30
71237;DHT22;58984;51.960;5.582;2022-08-19T12:09:02;29.50;53.20
71237;DHT22;58984;51.960;5.582;2022-08-19T12:11:27;29.70;53.20
71237;DHT22;58984;51.960;5.582;2022-08-19T12:13:53;29.70;53.10
71237;DHT22;58984;51.960;5.582;2022-08-19T12:16:28;29.80;53.10
71237;DHT22;58984;51.960;5.582;2022-08-19T12:18:55;29.60;53.10
71237;DHT22;58984;51.960;5.582;2022-08-19T12:21:23;29.80;53.10
71237;DHT22;58984;51.960;5.582;2022-08-19T12:23:50;29.80;53.10
71237;DHT22;58984;51.960;5.582;2022-08-19T12:26:16;29.80;53.00
71237;DHT22;58984;51.960;5.582;2022-08-19T12:28:42;29.80;53.00
71237;DHT22;58984;51.960;5.582;2022-08-19T12:31:09;29.90;53.00
71237;DHT22;58984;51.960;5.582;2022-08-19T12:33:37;29.90;52.90
71237;DHT22;58984;51.960;5.582;2022-08-19T12:36:06;29.90;52.80
71237;DHT22;58984;51.960;5.582;2022-08-19T12:38:32;29.90;52.80
71237;DHT22;58984;51.960;5.582;2022-08-19T12:41:00;29.90;52.70
71237;DHT22;58984;51.960;5.582;2022-08-19T12:43:26;29.90;52.70
71237;DHT22;58984;51.960;5.582;2022-08-19T12:45:52;29.90;52.60
71237;DHT22;58984;51.960;5.582;2022-08-19T12:48:17;29.90;52.60
71237;DHT22;58984;51.960;5.582;2022-08-19T12:50:44;30.00;52.50
71237;DHT22;58984;51.960;5.582;2022-08-19T12:53:13;30.00;52.60
71237;DHT22;58984;51.960;5.582;2022-08-19T12:55:40;30.00;52.50
71237;DHT22;58984;51.960;5.582;2022-08-19T12:58:06;30.00;52.50
71237;DHT22;58984;51.960;5.582;2022-08-19T13:00:31;30.00;52.50
71237;DHT22;58984;51.960;5.582;2022-08-19T13:02:59;30.00;52.50
71237;DHT22;58984;51.960;5.582;2022-08-19T13:05:28;30.10;52.50
71237;DHT22;58984;51.960;5.582;2022-08-19T13:07:56;30.00;52.50
71237;DHT22;58984;51.960;5.582;2022-08-19T13:10:25;30.10;52.30
71237;DHT22;58984;51.960;5.582;2022-08-19T13:12:53;30.10;52.30
71237;DHT22;58984;51.960;5.582;2022-08-19T13:15:20;30.00;52.10
71237;DHT22;58984;51.960;5.582;2022-08-19T13:17:47;30.10;52.20
71237;DHT22;58984;51.960;5.582;2022-08-19T13:20:18;30.10;52.10
71237;DHT22;58984;51.960;5.582;2022-08-19T13:22:45;30.10;52.30
71237;DHT22;58984;51.960;5.582;2022-08-19T13:25:11;30.10;51.60
71237;DHT22;58984;51.960;5.582;2022-08-19T13:27:38;30.10;51.50
71237;DHT22;58984;51.960;5.582;2022-08-19T13:30:07;30.10;51.70
71237;DHT22;58984;51.960;5.582;2022-08-19T13:32:52;30.10;51.70
71237;DHT22;58984;51.960;5.582;2022-08-19T13:35:36;30.10;51.60
71237;DHT22;58984;51.960;5.582;2022-08-19T13:38:02;30.10;51.60
71237;DHT22;58984;51.960;5.582;2022-08-19T13:40:30;30.00;51.50
71237;DHT22;58984;51.960;5.582;2022-08-19T13:42:56;30.00;51.60
71237;DHT22;58984;51.960;5.582;2022-08-19T13:45:24;30.00;51.70
71237;DHT22;58984;51.960;5.582;2022-08-19T13:47:52;30.00;51.70
71237;DHT22;58984;51.960;5.582;2022-08-19T13:50:22;29.90;51.70
71237;DHT22;58984;51.960;5.582;2022-08-19T13:52:48;30.00;51.70
71237;DHT22;58984;51.960;5.582;2022-08-19T13:55:14;30.00;51.60
71237;DHT22;58984;51.960;5.582;2022-08-19T13:57:40;29.90;51.60
71237;DHT22;58984;51.960;5.582;2022-08-19T14:00:14;29.90;51.60
71237;DHT22;58984;51.960;5.582;2022-08-19T14:02:43;29.90;51.60
71237;DHT22;58984;51.960;5.582;2022-08-19T14:05:11;29.90;51.50
71237;DHT22;58984;51.960;5.582;2022-08-19T14:07:37;29.90;51.50
71237;DHT22;58984;51.960;5.582;2022-08-19T14:10:07;29.90;51.50
71237;DHT22;58984;51.960;5.582;2022-08-19T14:12:33;29.90;51.60
71237;DHT22;58984;51.960;5.582;2022-08-19T14:15:00;29.90;51.50
71237;DHT22;58984;51.960;5.582;2022-08-19T14:17:25;29.90;51.50
71237;DHT22;58984;51.960;5.582;2022-08-19T14:19:59;29.90;51.50
71237;DHT22;58984;51.960;5.582;2022-08-19T14:22:28;29.80;51.50
71237;DHT22;58984;51.960;5.582;2022-08-19T14:24:53;29.90;51.40
71237;DHT22;58984;51.960;5.582;2022-08-19T14:27:19;29.90;51.40
71237;DHT22;58984;51.960;5.582;2022-08-19T14:29:45;29.90;52.10
71237;DHT22;58984;51.960;5.582;2022-08-19T14:32:11;29.90;51.50
71237;DHT22;58984;51.960;5.582;2022-08-19T14:34:37;29.80;51.40
71237;DHT22;58984;51.960;5.582;2022-08-19T14:37:03;29.90;51.60
71237;DHT22;58984;51.960;5.582;2022-08-19T14:39:28;29.90;51.90
71237;DHT22;58984;51.960;5.582;2022-08-19T14:41:54;29.80;52.20
71237;DHT22;58984;51.960;5.582;2022-08-19T14:44:20;29.80;52.30
71237;DHT22;58984;51.960;5.582;2022-08-19T14:46:45;29.80;52.50
71237;DHT22;58984;51.960;5.582;2022-08-19T14:49:11;29.90;52.70
71237;DHT22;58984;51.960;5.582;2022-08-19T14:51:37;29.80;52.80
71237;DHT22;58984;51.960;5.582;2022-08-19T14:54:03;29.80;52.90
71237;DHT22;58984;51.960;5.582;2022-08-19T14:56:29;29.80;53.00
71237;DHT22;58984;51.960;5.582;2022-08-19T14:58:56;29.80;53.10
71237;DHT22;58984;51.960;5.582;2022-08-19T15:01:24;29.80;53.20
71237;DHT22;58984;51.960;5.582;2022-08-19T15:03:50;29.80;53.20
71237;DHT22;58984;51.960;5.582;2022-08-19T15:06:19;29.70;53.20
71237;DHT22;58984;51.960;5.582;2022-08-19T15:08:44;29.80;53.20
71237;DHT22;58984;51.960;5.582;2022-08-19T15:11:15;29.80;53.40
71237;DHT22;58984;51.960;5.582;2022-08-19T15:13:42;29.70;53.30
71237;DHT22;58984;51.960;5.582;2022-08-19T15:16:08;29.80;53.40
71237;DHT22;58984;51.960;5.582;2022-08-19T15:18:34;29.80;53.50
71237;DHT22;58984;51.960;5.582;2022-08-19T15:21:00;29.70;53.40
71237;DHT22;58984;51.960;5.582;2022-08-19T15:23:27;29.70;53.40
71237;DHT22;58984;51.960;5.582;2022-08-19T15:25:52;29.60;53.50
71237;DHT22;58984;51.960;5.582;2022-08-19T15:28:20;29.70;53.50
71237;DHT22;58984;51.960;5.582;2022-08-19T15:30:46;29.70;53.60
71237;DHT22;58984;51.960;5.582;2022-08-19T15:33:12;29.70;53.60
71237;DHT22;58984;51.960;5.582;2022-08-19T15:35:43;29.60;53.50
71237;DHT22;58984;51.960;5.582;2022-08-19T15:38:09;29.70;53.60
71237;DHT22;58984;51.960;5.582;2022-08-19T15:40:36;29.60;53.60
71237;DHT22;58984;51.960;5.582;2022-08-19T15:43:01;29.60;53.60
71237;DHT22;58984;51.960;5.582;2022-08-19T15:45:30;29.60;53.70